createdAt,value
2019-05-28T00:00:55.613Z,10.80
2019-05-28T00:03:29.519Z,11.63
2019-05-28T00:06:02.200Z,11.23
2019-05-28T00:08:34.879Z,11.40
2019-05-28T00:11:07.457Z,12.73
2019-05-28T00:13:40.242Z,12.23
2019-05-28T00:16:12.687Z,12.50
2019-05-28T00:18:44.952Z,13.03
2019-05-28T00:21:17.562Z,15.53
2019-05-28T00:23:51.272Z,13.87
2019-05-28T00:26:23.999Z,16.23
2019-05-28T00:28:56.619Z,17.50
2019-05-28T00:31:29.302Z,16.30
2019-05-28T00:34:01.992Z,16.57
2019-05-28T00:36:34.656Z,21.40
2019-05-28T00:39:09.290Z,19.70
2019-05-28T00:41:41.979Z,23.17
2019-05-28T00:44:15.664Z,17.63
2019-05-28T00:46:48.395Z,17.27
2019-05-28T00:49:21.031Z,16.77
2019-05-28T00:51:53.815Z,15.73
2019-05-28T00:54:26.494Z,16.60
2019-05-28T00:56:59.994Z,16.73
2019-05-28T00:59:33.786Z,16.93
2019-05-28T01:02:06.771Z,24.23
2019-05-28T01:04:40.475Z,22.70
2019-05-28T01:07:14.291Z,17.27
2019-05-28T01:09:46.960Z,18.63
2019-05-28T01:12:19.649Z,18.07
2019-05-28T01:14:52.422Z,17.73
2019-05-28T01:17:26.448Z,16.47
2019-05-28T01:19:59.022Z,16.53
2019-05-28T01:22:31.696Z,16.03
2019-05-28T01:25:06.531Z,14.53
2019-05-28T01:27:40.263Z,15.00
2019-05-28T01:30:13.212Z,15.80
2019-05-28T01:32:47.870Z,16.37
2019-05-28T01:35:20.216Z,15.73
2019-05-28T01:37:53.100Z,16.00
2019-05-28T01:40:25.797Z,16.37
2019-05-28T01:42:59.066Z,15.60
2019-05-28T01:45:31.767Z,16.03
2019-05-28T01:48:05.166Z,16.70
2019-05-28T01:50:37.838Z,17.80
2019-05-28T01:53:10.141Z,16.90
2019-05-28T01:55:42.783Z,16.40
2019-05-28T01:58:15.451Z,17.43
2019-05-28T02:00:48.588Z,17.13
2019-05-28T02:03:21.227Z,17.47
2019-05-28T02:05:53.904Z,17.80
2019-05-28T02:08:26.572Z,18.37
2019-05-28T02:10:59.257Z,18.40
2019-05-28T02:13:32.138Z,17.27
2019-05-28T02:16:04.820Z,16.77
2019-05-28T02:18:37.127Z,18.33
2019-05-28T02:21:09.369Z,18.50
2019-05-28T02:23:42.038Z,19.17
2019-05-28T02:26:14.717Z,19.67
2019-05-28T02:28:47.396Z,19.50
2019-05-28T02:31:27.782Z,19.27
2019-05-28T02:33:54.351Z,18.87
2019-05-28T02:36:27.072Z,19.03
2019-05-28T02:38:59.806Z,18.57
2019-05-28T02:41:32.427Z,19.83
2019-05-28T02:44:05.673Z,20.13
2019-05-28T02:46:37.895Z,20.07
2019-05-28T02:49:10.572Z,19.10
2019-05-28T02:51:44.593Z,19.23
2019-05-28T02:54:17.367Z,19.37
2019-05-28T02:56:51.672Z,19.63
2019-05-28T02:59:26.107Z,19.77
2019-05-28T03:02:00.314Z,20.33
2019-05-28T03:04:33.472Z,19.47
2019-05-28T03:07:06.489Z,19.23
2019-05-28T03:09:41.630Z,18.33
2019-05-28T03:12:14.306Z,20.13
2019-05-28T03:14:47.036Z,19.43
2019-05-28T03:17:21.196Z,20.83
2019-05-28T03:19:54.597Z,21.73
2019-05-28T03:22:27.578Z,21.27
2019-05-28T03:25:01.487Z,20.07
2019-05-28T03:27:34.583Z,20.00
2019-05-28T03:30:11.020Z,21.17
2019-05-28T03:32:43.628Z,20.73
2019-05-28T03:35:16.403Z,21.40
2019-05-28T03:37:49.083Z,22.47
2019-05-28T03:40:43.064Z,22.90
2019-05-28T03:43:17.690Z,20.67
2019-05-28T03:45:50.698Z,21.53
2019-05-28T03:48:23.354Z,22.20
2019-05-28T03:50:56.341Z,22.27
2019-05-28T03:53:29.020Z,21.27
2019-05-28T03:56:01.732Z,22.70
2019-05-28T03:58:34.378Z,23.30
2019-05-28T04:01:07.161Z,21.50
2019-05-28T04:03:39.843Z,22.13
2019-05-28T04:06:12.525Z,22.30
2019-05-28T04:08:45.089Z,22.47
2019-05-28T04:11:17.775Z,22.03
2019-05-28T04:13:50.412Z,23.80
2019-05-28T04:16:23.132Z,22.73
2019-05-28T04:18:55.812Z,21.87
2019-05-28T04:21:28.496Z,21.00
2019-05-28T04:24:01.170Z,21.80
2019-05-28T04:26:34.167Z,21.63
2019-05-28T04:29:06.501Z,22.07
2019-05-28T04:31:39.216Z,22.03
2019-05-28T04:34:12.190Z,22.90
2019-05-28T04:36:44.474Z,21.93
2019-05-28T04:39:17.073Z,21.70
2019-05-28T04:41:49.720Z,22.50
2019-05-28T04:44:22.394Z,22.10
2019-05-28T04:46:55.086Z,21.93
2019-05-28T04:49:27.763Z,23.27
2019-05-28T04:52:00.471Z,22.30
2019-05-28T04:54:33.121Z,23.23
2019-05-28T04:57:05.801Z,23.47
2019-05-28T04:59:38.464Z,24.13
2019-05-28T05:02:11.359Z,24.70
2019-05-28T05:04:45.075Z,24.10
2019-05-28T05:07:17.751Z,24.20
2019-05-28T05:09:49.991Z,22.93
2019-05-28T05:12:22.570Z,23.27
2019-05-28T05:14:55.274Z,22.23
2019-05-28T05:17:27.968Z,22.53
2019-05-28T05:20:00.626Z,22.87
2019-05-28T05:22:33.298Z,24.23
2019-05-28T05:25:08.331Z,24.23
2019-05-28T05:27:42.358Z,24.97
2019-05-28T05:30:16.260Z,23.37
2019-05-28T05:32:51.198Z,24.57
2019-05-28T05:35:23.909Z,24.63
2019-05-28T05:37:56.650Z,24.63
2019-05-28T05:40:29.434Z,24.40
2019-05-28T05:43:02.305Z,25.50
2019-05-28T05:45:35.297Z,23.47
2019-05-28T05:48:09.155Z,23.43
2019-05-28T05:50:45.066Z,23.17
2019-05-28T05:53:16.517Z,22.67
2019-05-28T05:55:49.194Z,25.10
2019-05-28T05:58:21.469Z,25.90
2019-05-28T06:00:54.191Z,24.20
2019-05-28T06:03:39.834Z,23.63
2019-05-28T06:06:02.884Z,22.27
2019-05-28T06:08:37.178Z,22.67
2019-05-28T06:11:09.972Z,21.50
2019-05-28T06:13:42.647Z,22.07
2019-05-28T06:16:15.340Z,23.00
2019-05-28T06:18:47.619Z,21.27
2019-05-28T06:21:20.480Z,20.60
2019-05-28T06:23:53.181Z,22.33
2019-05-28T06:26:25.418Z,23.33
2019-05-28T06:28:58.114Z,23.40
2019-05-28T06:31:30.817Z,22.87
2019-05-28T06:34:03.486Z,21.27
2019-05-28T06:36:35.730Z,21.00
2019-05-28T06:39:09.518Z,21.77
2019-05-28T06:41:42.125Z,19.23
2019-05-28T06:44:14.806Z,19.87
2019-05-28T06:46:47.475Z,19.60
2019-05-28T06:49:20.258Z,20.10
2019-05-28T06:51:52.946Z,21.60
2019-05-28T06:54:25.650Z,22.27
2019-05-28T06:56:57.857Z,21.97
2019-05-28T06:59:30.468Z,19.23
2019-05-28T07:02:03.259Z,16.53
2019-05-28T07:04:35.930Z,18.33
2019-05-28T07:07:08.601Z,15.80
2019-05-28T07:09:42.315Z,15.97
2019-05-28T07:12:17.886Z,16.10
2019-05-28T07:14:49.531Z,16.07
2019-05-28T07:17:22.496Z,16.20
2019-05-28T07:19:55.190Z,13.57
2019-05-28T07:22:27.864Z,15.77
2019-05-28T07:25:00.547Z,16.20
2019-05-28T07:27:33.217Z,16.80
2019-05-28T07:30:08.866Z,17.47
2019-05-28T07:32:41.451Z,16.93
2019-05-28T07:35:14.733Z,15.33
2019-05-28T07:37:47.424Z,12.63
2019-05-28T07:40:31.282Z,14.93
2019-05-28T07:42:55.133Z,14.73
2019-05-28T07:45:27.817Z,12.27
2019-05-28T07:48:00.602Z,11.17
2019-05-28T07:50:33.264Z,12.50
2019-05-28T07:53:05.964Z,12.17
2019-05-28T07:55:38.636Z,12.50
2019-05-28T07:58:11.319Z,9.90
2019-05-28T08:00:45.112Z,10.67
2019-05-28T08:03:17.806Z,10.70
2019-05-28T08:05:50.479Z,10.50
2019-05-28T08:08:25.307Z,10.27
2019-05-28T08:10:57.972Z,10.23
2019-05-28T08:13:40.096Z,11.07
2019-05-28T08:16:18.191Z,11.57
2019-05-28T08:18:40.522Z,12.03
2019-05-28T08:21:13.205Z,11.87
2019-05-28T08:23:45.986Z,10.67
2019-05-28T08:26:18.665Z,10.30
2019-05-28T08:28:51.373Z,11.07
2019-05-28T08:31:24.126Z,10.83
2019-05-28T08:33:57.006Z,10.93
2019-05-28T08:36:29.891Z,11.00
2019-05-28T08:39:02.465Z,10.50
2019-05-28T08:41:37.588Z,10.90
2019-05-28T08:44:10.184Z,11.17
2019-05-28T08:46:42.851Z,11.10
2019-05-28T08:49:15.547Z,11.27
2019-05-28T08:51:48.526Z,12.03
2019-05-28T08:54:21.216Z,11.23
2019-05-28T08:56:53.505Z,12.33
2019-05-28T08:59:26.203Z,11.90
2019-05-28T09:01:58.934Z,12.23
2019-05-28T09:04:31.784Z,12.57
2019-05-28T09:07:05.625Z,12.37
2019-05-28T09:09:38.297Z,13.57
2019-05-28T09:12:10.989Z,13.23
2019-05-28T09:14:55.988Z,13.93
2019-05-28T09:17:18.084Z,12.83
2019-05-28T09:19:50.770Z,13.33
2019-05-28T09:22:26.224Z,12.63
2019-05-28T09:24:57.356Z,14.20
2019-05-28T09:27:31.164Z,13.43
2019-05-28T09:30:04.249Z,13.67
2019-05-28T09:32:36.534Z,13.53
2019-05-28T09:35:11.349Z,13.43
2019-05-28T09:37:43.930Z,14.13
2019-05-28T09:40:16.913Z,14.17
2019-05-28T09:42:50.004Z,14.20
2019-05-28T09:45:23.524Z,14.93
2019-05-28T09:47:56.388Z,15.37
2019-05-28T09:50:30.882Z,15.40
2019-05-28T09:53:03.071Z,14.60
2019-05-28T09:55:36.064Z,15.73
2019-05-28T09:58:16.892Z,14.63
2019-05-28T10:00:58.027Z,15.87
2019-05-28T10:03:24.953Z,16.17
2019-05-28T10:06:15.076Z,16.70
2019-05-28T10:08:32.263Z,17.10
2019-05-28T10:11:04.932Z,16.17
2019-05-28T10:13:39.861Z,16.93
2019-05-28T10:16:11.460Z,16.97
2019-05-28T10:18:43.997Z,16.73
2019-05-28T10:21:18.668Z,16.83
2019-05-28T10:23:50.893Z,16.97
2019-05-28T10:26:23.151Z,13.27
2019-05-28T10:28:56.044Z,13.67
2019-05-28T10:31:28.723Z,12.67
2019-05-28T10:34:01.438Z,12.43
2019-05-28T10:36:36.444Z,13.27
2019-05-28T10:39:10.245Z,12.53
2019-05-28T10:41:42.921Z,12.97
2019-05-28T10:44:15.498Z,13.50
2019-05-28T10:46:49.202Z,13.13
2019-05-28T10:49:22.089Z,14.63
2019-05-28T10:51:55.178Z,14.63
2019-05-28T10:54:27.421Z,15.30
2019-05-28T10:57:00.553Z,14.83
2019-05-28T10:59:32.774Z,14.10
2019-05-28T11:02:05.481Z,13.63
2019-05-28T11:04:38.182Z,12.60
2019-05-28T11:07:19.237Z,12.47
2019-05-28T11:09:51.702Z,12.47
2019-05-28T11:12:25.734Z,12.37
2019-05-28T11:14:58.403Z,12.80
2019-05-28T11:17:31.077Z,11.93
2019-05-28T11:20:04.793Z,11.57
2019-05-28T11:22:37.462Z,10.43
2019-05-28T11:25:11.485Z,9.33
2019-05-28T11:27:44.151Z,9.10
2019-05-28T11:30:19.306Z,8.27
2019-05-28T11:32:52.168Z,7.97
2019-05-28T11:35:25.566Z,7.27
2019-05-28T11:37:57.808Z,7.57
2019-05-28T11:40:30.316Z,7.37
2019-05-28T11:43:03.499Z,7.30
2019-05-28T11:45:36.496Z,7.40
2019-05-28T11:48:09.615Z,7.50
2019-05-28T11:50:42.356Z,6.50
2019-05-28T11:53:15.049Z,5.60
2019-05-28T11:55:47.926Z,5.10
2019-05-28T11:58:20.619Z,4.83
2019-05-28T12:00:53.177Z,4.40
2019-05-28T12:03:26.164Z,4.70
2019-05-28T12:05:59.099Z,5.13
2019-05-28T12:08:31.723Z,4.93
2019-05-28T12:11:04.304Z,4.57
2019-05-28T12:13:36.910Z,4.40
2019-05-28T12:16:09.241Z,4.57
2019-05-28T12:18:41.932Z,4.33
2019-05-28T12:21:14.509Z,4.13
2019-05-28T12:23:47.290Z,4.13
2019-05-28T12:26:21.406Z,4.40
2019-05-28T12:28:53.990Z,4.07
2019-05-28T12:31:26.389Z,4.43
2019-05-28T12:33:59.062Z,4.50
2019-05-28T12:36:31.920Z,4.40
2019-05-28T12:39:06.436Z,4.57
2019-05-28T12:41:39.121Z,4.90
2019-05-28T12:44:12.049Z,5.07
2019-05-28T12:46:44.586Z,4.80
2019-05-28T12:49:17.260Z,4.93
2019-05-28T12:51:49.837Z,4.70
2019-05-28T12:54:22.848Z,4.70
2019-05-28T12:56:55.498Z,4.67
2019-05-28T12:59:27.769Z,5.10
2019-05-28T13:02:00.344Z,4.90
2019-05-28T13:04:33.023Z,5.30
2019-05-28T13:07:05.753Z,5.10
2019-05-28T13:09:38.444Z,5.43
2019-05-28T13:12:11.061Z,5.30
2019-05-28T13:14:43.742Z,6.03
2019-05-28T13:17:16.315Z,5.80
2019-05-28T13:19:49.008Z,6.47
2019-05-28T13:22:21.576Z,6.90
2019-05-28T13:24:53.923Z,6.67
2019-05-28T13:27:26.620Z,5.93
2019-05-28T13:29:58.868Z,6.17
2019-05-28T13:32:31.472Z,5.17
2019-05-28T13:35:04.974Z,5.30
2019-05-28T13:37:37.555Z,5.03
2019-05-28T13:40:12.955Z,4.97
2019-05-28T13:42:45.670Z,5.67
2019-05-28T13:45:19.320Z,5.10
2019-05-28T13:47:51.959Z,4.90
2019-05-28T13:50:25.040Z,4.73
2019-05-28T13:52:58.943Z,4.63
2019-05-28T13:55:31.724Z,4.67
2019-05-28T13:58:04.322Z,4.63
2019-05-28T14:00:37.194Z,4.87
2019-05-28T14:03:10.410Z,4.17
2019-05-28T14:05:43.464Z,3.60
2019-05-28T14:08:15.673Z,3.67
2019-05-28T14:10:48.310Z,3.50
2019-05-28T14:13:20.890Z,3.80
2019-05-28T14:15:53.568Z,3.70
2019-05-28T14:18:27.067Z,3.93
2019-05-28T14:20:59.743Z,4.70
2019-05-28T14:23:32.696Z,4.60
2019-05-28T14:26:05.791Z,4.00
2019-05-28T14:28:38.395Z,3.80
2019-05-28T14:31:10.972Z,3.70
2019-05-28T14:33:43.651Z,3.93
2019-05-28T14:36:16.437Z,4.57
2019-05-28T14:39:02.426Z,4.70
2019-05-28T14:41:23.331Z,3.77
2019-05-28T14:43:56.008Z,4.40
2019-05-28T14:46:28.582Z,4.40
2019-05-28T14:49:01.264Z,4.37
2019-05-28T14:51:34.970Z,4.07
2019-05-28T14:54:07.598Z,3.80
2019-05-28T14:56:40.230Z,3.70
2019-05-28T14:59:12.906Z,3.63
2019-05-28T15:01:45.122Z,3.50
2019-05-28T15:04:18.857Z,3.30
2019-05-28T15:06:51.451Z,3.13
2019-05-28T15:09:24.133Z,2.93
2019-05-28T15:11:56.350Z,3.60
2019-05-28T15:14:29.077Z,4.20
2019-05-28T15:17:01.999Z,8.20
2019-05-28T15:19:34.855Z,4.63
2019-05-28T15:22:07.462Z,4.63
2019-05-28T15:24:40.716Z,3.87
2019-05-28T15:27:13.295Z,5.53
2019-05-28T15:29:45.992Z,4.80
2019-05-28T15:32:18.555Z,5.10
2019-05-28T15:34:50.795Z,5.03
2019-05-28T15:37:23.397Z,5.13
2019-05-28T15:39:55.650Z,5.50
2019-05-28T15:42:28.243Z,5.50
2019-05-28T15:45:00.928Z,7.57
2019-05-28T15:47:33.869Z,4.70
2019-05-28T15:50:08.946Z,4.40
2019-05-28T15:52:41.521Z,3.60
2019-05-28T15:55:14.814Z,3.70
2019-05-28T15:57:47.388Z,3.93
2019-05-28T16:00:24.644Z,4.10
2019-05-28T16:02:58.051Z,3.87
2019-05-28T16:05:30.754Z,3.67
2019-05-28T16:08:03.330Z,2.73
2019-05-28T16:10:36.025Z,2.70
2019-05-28T16:13:08.585Z,3.60
2019-05-28T16:15:41.368Z,3.17
2019-05-28T16:18:13.957Z,4.00
2019-05-28T16:20:46.938Z,6.27
2019-05-28T16:23:19.504Z,4.67
2019-05-28T16:25:52.593Z,4.87
2019-05-28T16:28:26.198Z,6.37
2019-05-28T16:31:11.717Z,5.70
2019-05-28T16:33:33.204Z,5.03
2019-05-28T16:36:05.973Z,4.30
2019-05-28T16:38:38.862Z,7.40
2019-05-28T16:41:11.535Z,4.07
2019-05-28T16:43:44.113Z,4.13
2019-05-28T16:46:16.695Z,3.60
2019-05-28T16:48:48.934Z,3.37
2019-05-28T16:51:21.537Z,3.30
2019-05-28T16:53:54.115Z,3.37
2019-05-28T16:56:26.795Z,3.30
2019-05-28T16:58:59.367Z,3.93
2019-05-28T17:01:32.054Z,3.63
2019-05-28T17:04:04.623Z,3.67
2019-05-28T17:06:38.394Z,3.43
2019-05-28T17:09:10.701Z,4.00
2019-05-28T17:11:43.384Z,3.67
2019-05-28T17:14:15.954Z,4.30
2019-05-28T17:16:49.067Z,3.93
2019-05-28T17:19:21.621Z,3.33
2019-05-28T17:21:54.309Z,4.03
2019-05-28T17:24:26.882Z,3.90
2019-05-28T17:27:00.581Z,3.90
2019-05-28T17:29:32.792Z,4.40
2019-05-28T17:32:05.430Z,5.07
2019-05-28T17:34:38.772Z,8.40
2019-05-28T17:37:12.655Z,5.07
2019-05-28T17:39:45.263Z,4.67
2019-05-28T17:42:17.887Z,4.40
2019-05-28T17:44:50.521Z,4.00
2019-05-28T17:47:23.045Z,4.43
2019-05-28T17:49:55.616Z,4.20
2019-05-28T17:52:28.295Z,4.23
2019-05-28T17:55:00.972Z,4.77
2019-05-28T17:57:33.663Z,4.90
2019-05-28T18:00:07.866Z,4.67
2019-05-28T18:02:43.784Z,4.50
2019-05-28T18:05:20.434Z,4.53
2019-05-28T18:07:54.489Z,4.77
2019-05-28T18:10:29.799Z,4.77
2019-05-28T18:13:06.240Z,5.50
2019-05-28T18:15:47.602Z,4.90
2019-05-28T18:18:16.931Z,4.93
2019-05-28T18:20:50.197Z,5.20
2019-05-28T18:23:22.976Z,5.13
2019-05-28T18:25:56.474Z,4.87
2019-05-28T18:28:31.063Z,5.73
2019-05-28T18:31:05.460Z,5.70
2019-05-28T18:33:42.829Z,5.47
2019-05-28T18:36:18.741Z,5.30
2019-05-28T18:38:52.466Z,5.50
2019-05-28T18:41:27.650Z,5.43
2019-05-28T18:44:08.064Z,5.60
2019-05-28T18:46:44.808Z,5.23
2019-05-28T18:49:20.594Z,5.87
2019-05-28T18:51:54.802Z,5.33
2019-05-28T18:54:30.225Z,5.33
2019-05-28T18:57:02.821Z,5.07
2019-05-28T18:59:36.204Z,5.50
2019-05-28T19:02:10.288Z,5.60
2019-05-28T19:04:46.990Z,5.83
2019-05-28T19:07:20.610Z,5.20
2019-05-28T19:09:54.944Z,5.20
2019-05-28T19:12:30.804Z,5.50
2019-05-28T19:15:08.278Z,5.20
2019-05-28T19:17:41.128Z,5.10
2019-05-28T19:20:20.624Z,4.77
2019-05-28T19:22:55.553Z,5.03
2019-05-28T19:25:29.399Z,4.60
2019-05-28T19:28:03.242Z,4.83
2019-05-28T19:30:39.068Z,5.43
2019-05-28T19:33:11.773Z,5.20
2019-05-28T19:35:46.340Z,5.00
2019-05-28T19:38:20.306Z,5.70
2019-05-28T19:40:52.993Z,5.00
2019-05-28T19:43:25.573Z,5.57
2019-05-28T19:45:58.740Z,6.03
2019-05-28T19:48:32.093Z,6.30
2019-05-28T19:51:04.960Z,7.30
2019-05-28T19:53:37.514Z,6.70
2019-05-28T19:56:10.203Z,7.03
2019-05-28T19:58:42.431Z,6.47
2019-05-28T20:01:15.135Z,6.17
2019-05-28T20:03:47.811Z,6.63
2019-05-28T20:06:20.551Z,5.53
2019-05-28T20:08:53.167Z,5.27
2019-05-28T20:11:25.858Z,7.07
2019-05-28T20:13:58.430Z,6.57
2019-05-28T20:16:31.123Z,6.50
2019-05-28T20:19:04.003Z,5.90
2019-05-28T20:21:36.665Z,6.50
2019-05-28T20:24:08.887Z,6.77
2019-05-28T20:26:41.512Z,6.30
2019-05-28T20:29:14.094Z,7.33
2019-05-28T20:31:46.770Z,6.57
2019-05-28T20:34:19.450Z,6.03
2019-05-28T20:36:52.128Z,6.13
2019-05-28T20:39:24.718Z,6.70
2019-05-28T20:41:57.385Z,7.20
2019-05-28T20:44:30.267Z,7.10
2019-05-28T20:47:04.971Z,7.63
2019-05-28T20:49:37.982Z,8.13
2019-05-28T20:52:10.441Z,8.83
2019-05-28T20:54:43.035Z,7.27
2019-05-28T20:57:15.712Z,10.13
2019-05-28T20:59:49.409Z,7.80
2019-05-28T21:02:22.298Z,6.80
2019-05-28T21:04:54.879Z,7.13
2019-05-28T21:07:27.861Z,6.70
2019-05-28T21:10:00.437Z,7.10
2019-05-28T21:12:43.370Z,7.53
2019-05-28T21:15:10.129Z,6.67
2019-05-28T21:17:42.778Z,6.50
2019-05-28T21:20:15.966Z,6.07
2019-05-28T21:22:49.775Z,5.63
2019-05-28T21:25:22.351Z,6.10
2019-05-28T21:27:56.453Z,5.70
2019-05-28T21:30:29.453Z,6.33
2019-05-28T21:33:02.133Z,6.40
2019-05-28T21:35:34.820Z,6.20
2019-05-28T21:38:07.485Z,6.67
2019-05-28T21:40:40.063Z,6.03
2019-05-28T21:43:12.743Z,6.47
2019-05-28T21:45:45.319Z,6.40
2019-05-28T21:48:17.997Z,6.80
2019-05-28T21:50:50.676Z,7.10
2019-05-28T21:53:22.935Z,7.67
2019-05-28T21:55:55.368Z,5.97
2019-05-28T21:58:27.997Z,7.10
2019-05-28T22:01:05.290Z,6.60
2019-05-28T22:03:39.088Z,7.33
2019-05-28T22:06:11.309Z,6.90
2019-05-28T22:08:43.937Z,7.30
2019-05-28T22:11:16.511Z,8.23
2019-05-28T22:13:49.196Z,7.73
2019-05-28T22:16:22.080Z,7.30
2019-05-28T22:18:56.100Z,8.80
2019-05-28T22:21:28.593Z,8.10
2019-05-28T22:24:02.559Z,7.57
2019-05-28T22:26:35.456Z,7.50
2019-05-28T22:29:08.656Z,7.47
2019-05-28T22:31:41.327Z,7.77
2019-05-28T22:34:14.006Z,7.23
2019-05-28T22:36:46.237Z,6.90
2019-05-28T22:39:18.853Z,7.30
2019-05-28T22:41:51.738Z,6.73
2019-05-28T22:44:24.424Z,7.30
2019-05-28T22:46:57.404Z,7.40
2019-05-28T22:49:30.079Z,7.27
2019-05-28T22:52:03.905Z,7.30
2019-05-28T22:54:36.772Z,6.27
2019-05-28T22:57:09.657Z,6.53
2019-05-28T22:59:42.639Z,6.23
2019-05-28T23:02:15.533Z,6.27
2019-05-28T23:04:48.302Z,6.80
2019-05-28T23:07:21.088Z,6.23
2019-05-28T23:09:53.973Z,6.73
2019-05-28T23:12:26.651Z,6.03
2019-05-28T23:14:59.798Z,6.60
2019-05-28T23:17:32.442Z,6.40
2019-05-28T23:20:12.983Z,5.57
2019-05-28T23:22:45.868Z,6.67
2019-05-28T23:25:18.548Z,6.80
2019-05-28T23:27:51.529Z,6.50
2019-05-28T23:30:25.410Z,5.77
2019-05-28T23:32:58.216Z,5.67
2019-05-28T23:35:30.904Z,6.40
2019-05-28T23:38:04.853Z,6.07
2019-05-28T23:40:37.551Z,6.30
2019-05-28T23:43:10.165Z,5.27
2019-05-28T23:45:43.070Z,5.93
2019-05-28T23:48:18.306Z,4.57
2019-05-28T23:50:50.046Z,3.77
2019-05-28T23:53:22.621Z,3.17
2019-05-28T23:55:55.303Z,3.20
2019-05-28T23:58:27.878Z,3.13
